Latest Coastal Weather Observations for Maningrida Airport

IDD60701

Issued at 12:21 pm CST Monday 27 March 2017 (issued every 10 minutes, with the page automatically refreshed every 10 minutes)

About coastal observations | Map of coastal stations | Coastal observations for NT | Marine services | Other Formats
Station Details ID: 014405 Name: MANINGRIDA AIRPORT Lat: -12.06 Lon: 134.23 Height: 28.1 m
Data from the previous 72 hours. | See also: Recent months at Maningrida Airport
Date/Time
CST
Temp
°C
Wind Pressure Rain since
9am
mm
Weather Cloud Vis
km
Sea
Height
m
Swell
Dir  Spd
kts
Gust
kts
hPa Trend Height
m
Period
s
Dir
27/12:00pm 32.7 WNW 7 10 1008.7 - 0.0 - Mostly clear 10 - - - -
27/11:30am 32.5 W 6 9 1009.3 - 0.0 - Partly cloudy 10 - - - -
27/11:00am 31.9 W 6 10 1009.8 - 0.0 - Partly cloudy 10 - - - -
27/10:30am 31.3 NW 8 11 1010.1 - 0.0 - - 10 - - - -
27/10:00am 30.9 WNW 9 13 1010.3 - 0.0 - - 10 - - - -
27/09:30am 30.1 WNW 7 12 1010.6 - 0.0 - - 10 - - - -
27/09:00am 29.6 WNW 6 11 1010.8 - 0.0 - - 10 - - - -
27/08:30am 28.8 W 6 10 1010.6 - 0.0 - - 10 - - - -
27/08:00am 28.0 WNW 6 9 1010.3 - 0.0 - - 10 - - - -
27/07:30am 27.2 WNW 5 7 1010.0 - 0.0 - - 10 - - - -
27/07:00am 26.7 WNW 5 8 1009.5 - 0.0 - - 10 - - - -
27/06:30am 26.5 W 5 8 1009.3 - 0.0 - - 10 - - - -
27/06:00am 26.6 W 5 7 1009.5 - 0.0 - - 10 - - - -
27/05:30am 26.6 W 4 8 1009.4 - 0.0 - Partly cloudy 10 - - - -
27/05:00am 26.7 W 5 9 1009.3 - 0.0 - Cloudy 10 - - - -
27/04:30am 26.6 WSW 3 5 1009.3 - 0.0 - Partly cloudy 10 - - - -
27/04:00am 26.7 W 4 7 1009.1 - 0.0 - - 10 - - - -
27/03:30am 26.8 W 5 8 1009.1 - 0.0 - - 10 - - - -
27/03:00am 26.9 W 4 7 1009.1 - 0.0 - Mostly clear 10 - - - -
27/02:30am 27.0 WSW 2 4 1009.5 - 0.0 - - 10 - - - -
27/02:00am 27.3 WSW 4 6 1009.8 - 0.0 - - 10 - - - -
27/01:30am 27.6 WNW 4 7 1010.0 - 0.0 - - 10 - - - -
27/01:00am 27.6 WNW 3 5 1010.4 - 0.0 - - 10 - - - -
27/12:30am 27.7 WNW 4 7 1010.6 - 0.0 - - 10 - - - -
27/12:00am 27.5 W 4 8 1010.6 - 0.0 - - 10 - - - -
 
Date/Time
CST
Temp
°C
Wind Pressure Rain since
9am
mm
Weather Cloud Vis
km
Sea
Height
m
Swell
Dir  Spd
kts
Gust
kts
hPa Trend Height
m
Period
s
Dir
26/11:30pm 27.8 NW 2 4 1010.6 - 0.0 - - 10 - - - -
26/11:00pm 28.2 WNW 5 8 1010.5 - 0.0 - - 10 - - - -
26/10:30pm 28.3 WNW 4 8 1010.4 - 0.0 - - 10 - - - -
26/10:00pm 28.4 WNW 5 9 1010.5 - 0.0 - Partly cloudy 10 - - - -
26/09:30pm 28.7 NW 6 9 1010.3 - 0.0 - - 10 - - - -
26/09:00pm 28.8 NW 8 11 1009.8 - 0.0 - - 10 - - - -
26/08:30pm 28.9 NW 9 14 1009.3 - 0.0 - - 10 - - - -
26/08:00pm 28.9 NW 8 13 1008.7 - 0.0 - - 10 - - - -
26/07:30pm 28.8 NNW 12 15 1008.6 - 0.0 - Partly cloudy 10 - - - -
26/07:00pm 29.0 NNW 12 15 1008.1 - 0.0 - - 10 - - - -
26/06:30pm 29.6 NNW 11 14 1007.6 - 0.0 - - 10 - - - -
26/06:00pm 30.0 NNW 13 16 1007.4 - 0.0 - - 10 - - - -
26/05:30pm 30.3 N 11 14 1007.2 - 0.0 - - 10 - - - -
26/05:00pm 30.3 N 11 15 1006.7 - 0.0 - - 10 - - - -
26/04:30pm 30.8 N 11 15 1006.6 - 0.0 - - 10 - - - -
26/04:00pm 31.0 N 11 15 1006.5 - 0.0 - - 10 - - - -
26/03:30pm 31.5 N 11 15 1006.5 - 0.0 - - 10 - - - -
26/03:00pm 31.1 N 13 16 1006.6 - 0.0 - - 10 - - - -
26/02:30pm 31.2 NNW 12 16 1006.9 - 0.0 - - 10 - - - -
26/02:00pm 31.2 N 14 18 1007.2 - 0.0 - Partly cloudy 10 - - - -
26/01:30pm 31.4 NNW 15 19 1007.5 - 0.0 - - 10 - - - -
26/01:00pm 32.3 NNW 15 20 1008.0 - 0.0 - Partly cloudy 10 - - - -
26/12:30pm 32.0 N 15 19 1008.6 - 0.0 - Partly cloudy 10 - - - -
26/12:00pm 32.3 NNW 12 16 1009.0 - 0.0 - Mostly clear 10 - - - -
26/11:30am 31.4 NNW 11 14 1009.5 - 0.0 - - 10 - - - -
26/11:00am 31.0 NNW 11 16 1009.8 - 0.0 - - 10 - - - -
26/10:30am 30.7 NW 9 14 1009.9 - 0.0 - Partly cloudy 10 - - - -
26/10:00am 30.3 NW 8 10 1010.1 - 0.0 - Partly cloudy 10 - - - -
26/09:30am 29.9 NNW 9 12 1010.1 - 0.0 - Partly cloudy 10 - - - -
26/09:00am 30.1 WNW 5 8 1010.0 - 0.0 - Mostly clear 10 - - - -
26/08:30am 29.5 WNW 5 9 1009.6 - 0.0 - Partly cloudy 10 - - - -
26/08:00am 28.1 W 3 7 1009.5 - 0.0 - Partly cloudy 10 - - - -
26/07:30am 26.8 CALM 0 0 1009.1 - 0.0 - Partly cloudy 10 - - - -
26/07:00am 26.2 W 2 3 1008.7 - 0.0 - - 10 - - - -
26/06:30am 26.0 W 3 4 1008.4 - 0.0 - - 10 - - - -
26/06:00am 26.0 CALM 0 0 1008.1 - 0.0 - - 10 - - - -
26/05:30am 26.2 CALM 0 2 1007.9 - 0.0 - - 10 - - - -
26/05:00am 26.3 WSW 2 3 1008.0 - 0.0 - - 10 - - - -
26/04:30am 26.6 WSW 3 5 1007.9 - 0.0 - - 10 - - - -
26/04:00am 26.8 W 2 4 1008.0 - 0.0 - - 10 - - - -
26/03:30am 27.2 W 2 4 1007.7 - 0.0 - - 10 - - - -
26/03:00am 27.6 WNW 3 5 1007.6 - 0.0 - - 10 - - - -
26/02:30am 27.8 WNW 4 7 1007.8 - 0.0 - - 10 - - - -
26/02:00am 28.2 WNW 6 8 1008.1 - 0.0 - Partly cloudy 10 - - - -
26/01:30am 28.5 NW 7 11 1008.6 - 0.0 - Partly cloudy 10 - - - -
26/01:00am 28.9 NW 7 11 1009.0 - 0.0 - Partly cloudy 10 - - - -
26/12:30am 28.8 NNW 9 13 1009.2 - 0.0 - Partly cloudy 10 - - - -
26/12:00am 29.0 N 9 12 1009.3 - 0.0 - Cloudy 10 - - - -
 
Date/Time
CST
Temp
°C
Wind Pressure Rain since
9am
mm
Weather Cloud Vis
km
Sea
Height
m
Swell
Dir  Spd
kts
Gust
kts
hPa Trend Height
m
Period
s
Dir
25/11:30pm 29.0 NNW 9 12 1009.4 - 0.0 - - 10 - - - -
25/11:00pm 29.1 NW 9 11 1009.3 - 0.0 - Partly cloudy 10 - - - -
25/10:30pm 28.8 NNW 8 11 1009.4 - 0.0 - - 10 - - - -
25/10:00pm 29.1 NNW 8 11 1009.3 - 0.0 - Partly cloudy 10 - - - -
25/09:30pm 29.2 NNW 7 11 1008.8 - 0.0 - Partly cloudy 10 - - - -
25/09:00pm 29.1 NNW 8 11 1008.4 - 0.0 - Mostly clear 10 - - - -
25/08:30pm 29.1 NNW 7 10 1007.9 - 0.0 - Partly cloudy 10 - - - -
25/08:00pm 29.1 NW 5 7 1007.8 - 0.0 - - 10 - - - -
25/07:30pm 29.2 NW 6 8 1007.3 - 0.0 - - 10 - - - -
25/07:00pm 29.4 NW 7 10 1006.9 - 0.0 - Partly cloudy 10 - - - -
25/06:30pm 29.7 NW 7 10 1006.4 - 0.0 - - 10 - - - -
25/06:00pm 30.3 NW 9 13 1006.1 - 0.0 - Mostly clear 10 - - - -
25/05:30pm 30.7 NNW 12 17 1005.8 - 0.0 - Partly cloudy 10 - - - -
25/05:00pm 31.3 NNW 14 18 1005.8 - 0.0 - Partly cloudy 10 - - - -
25/04:30pm 30.9 NNW 15 19 1006.0 - 0.0 - - 10 - - - -
25/04:00pm 31.6 NNW 15 19 1005.9 - 0.0 - - 10 - - - -
25/03:30pm 31.7 NNW 15 20 1005.8 - 0.0 - - 10 - - - -
25/03:00pm 31.3 N 14 19 1006.1 - 0.0 - - 10 - - - -
25/02:30pm 31.9 N 14 19 1006.5 - 0.0 - - 10 - - - -
25/02:00pm 31.9 N 15 18 1006.9 - 0.0 - Partly cloudy 10 - - - -
25/01:30pm 32.3 N 13 17 1007.1 - 0.0 - - 10 - - - -
25/01:00pm 31.8 N 13 18 1007.3 - 0.0 - - 10 - - - -
25/12:30pm 31.6 NNW 13 17 1007.9 - 0.0 - - 10 - - - -
25/12:00pm 31.6 NNW 13 17 1008.1 - 0.0 - - 10 - - - -
25/11:30am 30.9 NNW 12 16 1008.7 - 0.0 - Partly cloudy 10 - - - -
25/11:00am 31.1 N 10 13 1008.6 - 0.0 - - 10 - - - -
25/10:30am 31.3 N 11 14 1009.0 - 0.0 - Partly cloudy 10 - - - -
25/10:00am 30.7 NNW 9 14 1008.8 - 0.0 - Partly cloudy 10 - - - -
25/09:30am 30.6 N 8 11 1008.8 - 0.0 - Partly cloudy 10 - - - -
25/09:00am 29.9 NNW 7 9 1008.8 - 0.0 - - 10 - - - -
25/08:30am 29.4 NNW 7 10 1008.6 - 0.0 - - 10 - - - -
25/08:00am 28.6 NW 4 7 1008.2 - 0.0 - - 10 - - - -
25/07:30am 27.7 SW 1 4 1007.9 - 0.0 - - 10 - - - -
25/07:00am 27.0 SW 3 5 1007.4 - 0.0 - - 10 - - - -
25/06:30am 27.3 NW 4 5 1007.3 - 0.0 - - 10 - - - -
25/06:00am 27.4 NW 4 6 1007.2 - 0.0 - - 10 - - - -
25/05:30am 28.0 NW 7 11 1007.2 - 0.0 - Partly cloudy 10 - - - -
25/05:00am 28.1 NNW 12 16 1006.8 - 0.0 - Partly cloudy 10 - - - -
25/04:30am 28.3 NNW 11 16 1006.4 - 0.0 - Partly cloudy 10 - - - -
25/04:00am 28.6 N 10 14 1006.4 - 0.0 - Partly cloudy 10 - - - -
25/03:30am 28.5 N 11 14 1006.9 - 0.0 - Partly cloudy 10 - - - -
25/03:00am 28.5 N 9 12 1007.1 - 0.0 - Mostly clear 10 - - - -
25/02:30am 28.3 N 8 11 1007.4 - 0.0 - Partly cloudy 10 - - - -
25/02:00am 28.5 N 9 11 1007.7 - 0.0 - Partly cloudy 10 - - - -
25/01:30am 28.2 NNW 8 11 1007.9 - 0.0 - - 10 - - - -
25/01:00am 27.9 NNW 5 7 1008.0 - 0.0 - - 10 - - - -
25/12:30am 28.2 NW 4 6 1008.1 - 0.0 - - 10 - - - -
25/12:00am 28.5 NW 4 6 1008.6 - 0.0 - Mostly cloudy 10 - - - -
 
Date/Time
CST
Temp
°C
Wind Pressure Rain since
9am
mm
Weather Cloud Vis
km
Sea
Height
m
Swell
Dir  Spd
kts
Gust
kts
hPa Trend Height
m
Period
s
Dir
24/11:30pm 28.4 N 6 8 1008.7 - 0.0 - Partly cloudy 10 - - - -
24/11:00pm 28.5 N 5 7 1009.1 - 0.0 - Partly cloudy 10 - - - -
24/10:30pm 28.6 N 6 8 1008.9 - 0.0 - Partly cloudy 10 - - - -
24/10:00pm 28.8 N 7 9 1008.8 - 0.0 - Partly cloudy 10 - - - -
24/09:30pm 28.8 N 7 10 1008.1 - 0.0 - Partly cloudy 10 - - - -
24/09:00pm 28.8 N 8 10 1007.6 - 0.0 - Mostly clear 10 - - - -
24/08:30pm 28.7 N 6 9 1007.4 - 0.0 - - 10 - - - -
24/08:00pm 28.7 N 7 10 1006.9 - 0.0 - Partly cloudy 10 - - - -
24/07:30pm 28.7 N 8 10 1006.7 - 0.0 - Partly cloudy 10 - - - -
24/07:00pm 29.0 N 8 10 1006.8 - 0.0 - Partly cloudy 10 - - - -
24/06:30pm 29.1 N 7 9 1006.4 - 0.0 - Partly cloudy 10 - - - -
24/06:00pm 29.7 N 8 10 1006.3 - 0.0 - Mostly clear 10 - - - -
24/05:30pm 30.3 N 9 11 1006.1 - 0.0 - Partly cloudy 10 - - - -
24/05:00pm 30.9 NNW 9 11 1006.0 - 0.0 - Partly cloudy 10 - - - -
24/04:30pm 30.7 NNW 10 13 1005.9 - 0.0 - Partly cloudy 10 - - - -
24/04:00pm 31.3 N 8 11 1006.0 - 0.0 - Partly cloudy 10 - - - -
24/03:30pm 31.2 N 8 10 1006.1 - 0.0 - Partly cloudy 10 - - - -
24/03:00pm 31.4 N 8 13 1006.4 - 0.0 - - 10 - - - -
24/02:30pm 31.2 N 10 15 1006.7 - 0.0 - Partly cloudy 10 - - - -
24/02:00pm 31.1 N 9 13 1007.1 - 0.0 - - 10 - - - -
24/01:30pm 30.8 N 9 12 1007.3 - 0.0 - Partly cloudy 10 - - - -
24/01:00pm 31.2 N 9 13 1007.9 - 0.0 - - 10 - - - -
24/12:30pm 31.6 N 10 13 1008.5 - 0.0 - Partly cloudy 10 - - - -

Other Formats:

Comma delimited format used in spreadsheet applications
http://www.bom.gov.au/fwo/IDD60701/IDD60701.95142.axf

JavaScript Object Notation format (JSON) in row-major order
http://www.bom.gov.au/fwo/IDD60701/IDD60701.95142.json